Time;durP1;ratioP1;P1;durP2;ratioP2;P2;SDS_P1;SDS_P2;PMS_P1;PMS_P2;Temp;Humidity;BMP_temperature;BMP_pressure;BME280_temperature;BME280_humidity;BME280_pressure;Samples;Min_cycle;Max_cycle;Signal;HPM_P1;HPM_P2
2021/07/29 00:01:14;;;;;;;;;;;18.40;94.20;;;18.02;86.18;100011.34;5012042;28;19921;-86
2021/07/29 00:03:43;;;;;;;;;;;18.30;93.70;;;18.03;86.54;100020.44;5011915;28;20476;-87
2021/07/29 00:06:14;;;;;;;;;;;18.30;94.10;;;18.03;86.67;100004.78;5010911;28;19933;-87
2021/07/29 00:08:41;;;;;;;;;;;18.30;94.80;;;18.06;86.71;100009.78;5011864;28;19929;-87
2021/07/29 00:11:09;;;;;;;;;;;18.20;94.70;;;18.09;86.68;100001.03;5026776;28;20015;-87
2021/07/29 00:13:38;;;;;;;;;;;18.20;95.00;;;18.07;86.88;100010.63;5026836;28;19925;-86
2021/07/29 00:16:06;;;;;;;;;;;18.20;95.10;;;18.02;87.26;100021.53;5010926;28;20807;-87
2021/07/29 00:21:19;;;;;;;;;;;18.20;95.10;;;17.97;87.24;99992.84;5026653;28;19925;-87
2021/07/29 00:23:50;;;;;;;;;;;18.20;95.20;;;17.90;87.51;99983.88;5011381;28;19925;-87
2021/07/29 00:26:17;;;;;;;;;;;18.20;95.10;;;17.89;87.39;99993.22;5009815;28;19948;-87
2021/07/29 00:28:44;;;;;;;;;;;18.20;95.00;;;17.93;87.55;99994.41;5011372;28;19925;-87
2021/07/29 00:31:11;;;;;;;;;;;18.10;95.30;;;17.85;87.39;99997.53;4993439;28;19976;-87
2021/07/29 00:33:38;;;;;;;;;;;18.10;95.20;;;17.83;88.11;100010.69;5026472;28;20037;-87
2021/07/29 00:36:05;;;;;;;;;;;18.10;95.50;;;17.87;87.73;99998.13;5010585;28;20351;-87
2021/07/29 00:38:34;;;;;;;;;;;18.10;95.60;;;17.88;87.72;99988.81;5011348;28;19925;-86
2021/07/29 00:41:01;;;;;;;;;;;18.10;95.40;;;17.91;87.60;99974.53;5026425;28;19929;-86
2021/07/29 00:43:29;;;;;;;;;;;18.10;95.60;;;17.91;87.84;99973.69;5026305;28;20666;-86
2021/07/29 00:45:58;;;;;;;;;;;18.10;95.80;;;17.86;88.04;99976.34;5010410;28;19966;-87
2021/07/29 00:48:25;;;;;;;;;;;18.10;95.90;;;17.87;87.78;99973.34;5011061;28;20440;-87
2021/07/29 00:50:52;;;;;;;;;;;18.00;95.70;;;17.88;87.22;99986.06;5010922;28;20033;-87
2021/07/29 00:53:20;;;;;;;;;;;18.00;95.20;;;17.87;87.49;99978.03;5010965;28;19965;-87
2021/07/29 00:55:49;;;;;;;;;;;18.00;95.40;;;17.90;87.51;99983.06;5010719;28;19925;-87
2021/07/29 00:58:16;;;;;;;;;;;18.00;95.70;;;17.86;87.55;99988.22;5010549;28;19933;-87
2021/07/29 01:00:43;;;;;;;;;;;18.00;95.60;;;17.74;88.13;99993.75;5010769;28;19922;-87
2021/07/29 01:03:11;;;;;;;;;;;18.00;95.80;;;17.73;88.08;100005.00;5010819;28;19925;-87
2021/07/29 01:05:38;;;;;;;;;;;18.00;95.60;;;17.73;87.93;99996.72;5012993;28;20451;-87
2021/07/29 01:08:05;;;;;;;;;;;18.00;95.80;;;17.73;87.93;99991.22;5010128;28;20396;-87
2021/07/29 01:10:32;;;;;;;;;;;17.90;95.90;;;17.64;88.07;99989.94;5010738;28;19979;-87
2021/07/29 01:13:01;;;;;;;;;;;18.00;95.40;;;17.64;88.21;99978.94;5010648;28;20053;-87
2021/07/29 01:15:28;;;;;;;;;;;18.00;95.40;;;17.66;88.06;99977.59;5010562;28;20012;-86
2021/07/29 01:18:00;;;;;;;;;;;18.00;95.40;;;17.67;88.17;99976.53;5009951;28;20293;-87
2021/07/29 01:20:29;;;;;;;;;;;18.00;95.50;;;17.69;87.95;99979.03;5010489;28;19932;-87
2021/07/29 01:22:56;;;;;;;;;;;18.00;95.40;;;17.74;87.59;99968.09;5025475;28;20405;-86
2021/07/29 01:25:23;;;;;;;;;;;18.00;95.20;;;17.68;87.64;99971.84;5010243;28;19929;-87
2021/07/29 01:27:50;;;;;;;;;;;17.90;95.20;;;17.69;87.90;99970.78;5009669;28;19964;-87
2021/07/29 01:30:17;;;;;;;;;;;17.90;95.80;;;17.69;87.46;99973.53;5010216;28;19965;-87
2021/07/29 01:32:44;;;;;;;;;;;17.90;95.50;;;17.67;87.15;99972.91;5025280;28;20011;-87
2021/07/29 01:35:12;;;;;;;;;;;17.90;95.40;;;17.68;87.06;99972.69;5010091;28;19964;-86
2021/07/29 01:37:41;;;;;;;;;;;17.90;95.20;;;17.63;87.31;99966.22;4991686;28;19921;-86
2021/07/29 01:40:10;;;;;;;;;;;17.80;95.10;;;17.61;87.06;99969.25;4992640;28;20016;-87
2021/07/29 01:42:37;;;;;;;;;;;17.80;94.90;;;17.65;87.10;99964.94;5025469;28;20576;-87
2021/07/29 01:45:05;;;;;;;;;;;17.80;95.30;;;17.64;87.07;99967.91;5010090;28;19971;-86
2021/07/29 01:47:32;;;;;;;;;;;17.80;95.40;;;17.60;86.60;99962.06;5024575;28;20035;-86
2021/07/29 01:49:59;;;;;;;;;;;17.80;95.10;;;17.61;87.08;99957.38;5010090;28;20409;-87
2021/07/29 01:52:26;;;;;;;;;;;17.70;95.40;;;17.57;86.82;99952.41;5024626;28;19928;-87
2021/07/29 01:54:54;;;;;;;;;;;17.70;95.30;;;17.54;86.92;99955.63;5025124;28;19972;-87
2021/07/29 01:57:23;;;;;;;;;;;17.70;95.60;;;17.58;86.85;99945.78;4991676;28;20415;-87
2021/07/29 01:59:50;;;;;;;;;;;17.70;95.60;;;17.58;87.01;99951.31;5025055;28;19976;-87
2021/07/29 02:02:17;;;;;;;;;;;17.70;95.50;;;17.56;86.85;99953.47;5024927;28;20309;-87
2021/07/29 02:07:19;;;;;;;;;;;17.60;95.60;;;17.48;87.33;99953.84;5007089;28;19960;-86
2021/07/29 02:09:46;;;;;;;;;;;17.60;96.00;;;17.47;87.00;99956.84;5009854;28;19960;-86
2021/07/29 02:12:14;;;;;;;;;;;17.60;96.10;;;17.46;86.84;99956.03;5009755;28;19965;-86
2021/07/29 02:14:41;;;;;;;;;;;17.60;95.70;;;17.35;86.80;99959.63;5024827;28;20453;-85
2021/07/29 02:17:08;;;;;;;;;;;17.60;95.30;;;17.37;87.15;99960.22;5024034;28;20031;-85
2021/07/29 02:19:35;;;;;;;;;;;17.50;95.70;;;17.42;87.00;99960.34;5009609;28;19968;-86
2021/07/29 02:22:03;;;;;;;;;;;17.50;95.60;;;17.32;86.71;99960.94;5009703;28;20039;-86
2021/07/29 02:24:30;;;;;;;;;;;17.60;95.20;;;17.33;86.99;99961.78;5009744;28;19972;-86
2021/07/29 02:26:57;;;;;;;;;;;17.50;95.50;;;17.26;86.87;99950.91;5023953;28;20027;-86
2021/07/29 02:29:25;;;;;;;;;;;17.50;95.50;;;17.27;86.51;99957.25;5009606;28;19929;-86
2021/07/29 02:31:52;;;;;;;;;;;17.40;95.20;;;17.29;86.56;99961.44;5009458;28;20456;-86
2021/07/29 02:34:19;;;;;;;;;;;17.40;95.40;;;17.29;86.47;99955.13;5009757;28;19980;-86
2021/07/29 02:36:46;;;;;;;;;;;17.40;95.40;;;17.30;86.10;99951.28;5008489;28;19975;-86
2021/07/29 02:39:13;;;;;;;;;;;17.30;95.20;;;17.29;86.20;99952.38;5009464;28;20018;-86
2021/07/29 02:41:40;;;;;;;;;;;17.30;95.50;;;17.33;85.83;99953.53;5009631;28;19968;-86
2021/07/29 02:44:07;;;;;;;;;;;17.30;95.50;;;17.27;85.73;99951.75;5009567;28;20420;-86
2021/07/29 02:46:36;;;;;;;;;;;17.20;95.30;;;17.25;85.83;99949.25;5008621;28;19925;-85
2021/07/29 02:49:03;;;;;;;;;;;17.20;95.60;;;17.22;85.86;99955.22;5011221;28;20023;-86
2021/07/29 02:51:30;;;;;;;;;;;17.20;96.00;;;17.11;85.47;99959.66;5028245;28;19925;-86
2021/07/29 02:53:57;;;;;;;;;;;17.20;95.60;;;17.14;86.32;99953.69;5013356;28;20392;-85
2021/07/29 02:56:24;;;;;;;;;;;17.20;95.60;;;17.13;85.90;99957.50;5012366;28;19929;-86
2021/07/29 02:58:51;;;;;;;;;;;17.20;95.40;;;17.09;86.15;99959.06;5012896;28;20301;-85
2021/07/29 03:01:18;;;;;;;;;;;17.10;95.80;;;17.07;86.12;99958.47;5013055;28;19952;-85
2021/07/29 03:03:46;;;;;;;;;;;17.10;95.90;;;17.01;86.19;99959.44;5028267;28;20015;-85
2021/07/29 03:06:13;;;;;;;;;;;17.00;96.00;;;17.04;86.06;99953.47;5023120;28;19968;-86
2021/07/29 03:08:40;;;;;;;;;;;17.00;95.90;;;17.06;85.80;99955.97;5032769;28;20431;-85
2021/07/29 03:11:10;;;;;;;;;;;17.00;95.90;;;17.07;85.98;99966.72;5032621;28;19924;-86
2021/07/29 03:13:37;;;;;;;;;;;17.00;96.00;;;17.01;85.09;99956.69;5032202;28;19979;-85
2021/07/29 03:16:05;;;;;;;;;;;17.00;95.80;;;16.98;85.92;99949.78;5031898;28;19978;-86
2021/07/29 03:18:32;;;;;;;;;;;17.00;96.00;;;16.97;86.37;99959.09;5032606;28;20019;-86
2021/07/29 03:21:00;;;;;;;;;;;16.90;96.20;;;16.99;86.06;99961.59;5032516;28;19925;-86
2021/07/29 03:23:28;;;;;;;;;;;16.90;96.30;;;17.04;85.91;99960.88;5032541;28;19924;-86
2021/07/29 03:25:55;;;;;;;;;;;16.90;96.20;;;16.99;85.84;99961.59;5031726;28;19925;-86
2021/07/29 03:28:22;;;;;;;;;;;16.90;96.20;;;16.96;85.91;99965.69;5030882;28;20144;-85
2021/07/29 03:30:51;;;;;;;;;;;16.90;96.20;;;16.94;85.91;99964.22;5032380;28;19979;-86
2021/07/29 03:33:18;;;;;;;;;;;16.90;96.30;;;16.90;86.16;99963.03;5032345;28;20309;-86
2021/07/29 03:35:45;;;;;;;;;;;16.80;96.40;;;16.92;85.97;99961.72;5031900;28;19921;-85
2021/07/29 03:38:14;;;;;;;;;;;16.80;96.50;;;16.86;86.37;99964.59;5031722;28;19921;-86
2021/07/29 03:40:42;;;;;;;;;;;16.80;96.50;;;16.84;86.52;99970.34;5031942;28;19925;-85
2021/07/29 03:43:09;;;;;;;;;;;16.80;96.70;;;16.81;86.61;99965.28;5032144;28;19975;-86
2021/07/29 03:45:37;;;;;;;;;;;16.80;96.70;;;16.81;86.82;99966.13;5031960;28;19971;-85
2021/07/29 03:48:05;;;;;;;;;;;16.80;96.60;;;16.76;87.11;99967.94;5031438;28;19932;-86
2021/07/29 03:50:32;;;;;;;;;;;16.80;96.70;;;16.77;87.18;99975.06;5032075;28;19933;-85
2021/07/29 03:52:59;;;;;;;;;;;16.80;96.80;;;16.76;87.21;99970.69;5032114;28;19970;-86
2021/07/29 03:55:28;;;;;;;;;;;16.80;97.00;;;16.79;87.35;99965.53;5031694;28;20404;-85
2021/07/29 03:57:55;;;;;;;;;;;16.80;97.20;;;16.79;87.33;99967.44;5031493;28;19925;-85
2021/07/29 04:00:22;;;;;;;;;;;16.80;97.10;;;16.78;87.48;99966.59;5030619;28;20515;-86
2021/07/29 04:02:49;;;;;;;;;;;16.80;97.20;;;16.78;87.48;99966.59;5031842;28;19925;-85
2021/07/29 04:05:19;;;;;;;;;;;16.90;97.00;;;16.76;87.81;99974.25;5030224;28;20006;-85
2021/07/29 04:07:48;;;;;;;;;;;16.90;97.20;;;16.79;88.12;99978.41;5029740;28;19921;-85
2021/07/29 04:10:17;;;;;;;;;;;16.90;97.50;;;16.76;88.24;99970.69;5031631;28;19925;-85
2021/07/29 04:12:45;;;;;;;;;;;16.90;97.10;;;16.79;88.43;99968.28;5031613;28;19925;-86
2021/07/29 04:15:12;;;;;;;;;;;17.00;97.10;;;16.78;88.12;99972.09;5031922;28;19970;-86
2021/07/29 04:17:41;;;;;;;;;;;17.00;97.00;;;16.71;88.64;99965.88;5030998;28;19931;-85
2021/07/29 04:20:10;;;;;;;;;;;17.00;96.60;;;16.79;88.50;99973.78;5031455;28;19927;-85
2021/07/29 04:22:37;;;;;;;;;;;17.00;96.70;;;16.86;88.55;99967.34;5031502;28;20011;-85
2021/07/29 04:25:07;;;;;;;;;;;17.10;97.00;;;16.84;88.31;99964.84;5030102;28;19932;-85
2021/07/29 04:27:34;;;;;;;;;;;17.10;96.50;;;16.86;88.19;99962.69;5030716;28;19925;-86
2021/07/29 04:30:05;;;;;;;;;;;17.10;96.40;;;16.89;88.19;99966.88;5031153;28;19956;-86
2021/07/29 04:32:36;;;;;;;;;;;17.20;96.00;;;16.87;88.19;99971.75;5031222;28;19925;-85
2021/07/29 04:35:03;;;;;;;;;;;17.30;95.90;;;16.85;88.46;99976.66;5031055;28;19928;-85
2021/07/29 04:37:30;;;;;;;;;;;17.30;95.70;;;16.87;88.62;99974.50;5030443;28;19929;-85
2021/07/29 04:39:57;;;;;;;;;;;17.40;95.80;;;16.92;88.54;99980.97;5029725;28;19971;-85
2021/07/29 04:42:25;;;;;;;;;;;17.40;95.70;;;16.94;88.52;99966.97;5030985;28;20023;-86
2021/07/29 04:44:52;;;;;;;;;;;17.40;95.60;;;16.91;87.98;99973.81;5031129;28;19925;-86
2021/07/29 04:47:20;;;;;;;;;;;17.40;95.30;;;16.90;87.84;99979.53;5029994;28;19956;-85
2021/07/29 04:49:47;;;;;;;;;;;17.40;95.00;;;16.83;88.24;99989.81;5030988;28;19925;-86
2021/07/29 04:52:14;;;;;;;;;;;17.30;95.40;;;16.84;88.47;99994.25;5029606;28;19932;-85
2021/07/29 04:54:41;;;;;;;;;;;17.40;95.20;;;16.83;88.32;99996.16;5030899;28;20021;-85
2021/07/29 04:57:14;;;;;;;;;;;17.50;94.70;;;16.86;88.49;99995.66;5030422;28;19921;-85
2021/07/29 04:59:41;;;;;;;;;;;17.60;94.40;;;16.89;88.41;99995.19;5030887;28;19921;-86
2021/07/29 05:02:08;;;;;;;;;;;17.70;94.00;;;16.90;88.68;99990.53;5030619;28;20386;-86
2021/07/29 05:04:37;;;;;;;;;;;17.90;93.50;;;16.95;88.44;99996.16;5030730;28;20540;-86
2021/07/29 05:07:04;;;;;;;;;;;18.00;92.40;;;16.96;88.46;99989.56;5029883;28;20131;-86
2021/07/29 05:09:31;;;;;;;;;;;18.20;91.90;;;16.97;87.89;100002.25;5030569;28;19964;-86
2021/07/29 05:11:58;;;;;;;;;;;18.30;91.10;;;16.96;88.01;99995.91;5029745;28;20023;-86
2021/07/29 05:14:25;;;;;;;;;;;18.20;91.00;;;16.94;87.49;100002.72;5029002;28;19964;-86
2021/07/29 05:16:52;;;;;;;;;;;18.10;91.50;;;17.00;87.91;100001.75;5029920;28;20014;-86
2021/07/29 05:19:19;;;;;;;;;;;18.10;91.50;;;17.06;87.83;100002.69;5030332;28;20668;-86
2021/07/29 05:21:48;;;;;;;;;;;18.20;91.60;;;17.06;87.54;100003.56;5030127;28;19967;-87
2021/07/29 05:24:15;;;;;;;;;;;18.20;91.00;;;17.09;87.24;99997.56;5030151;28;19929;-86
2021/07/29 05:26:43;;;;;;;;;;;18.20;91.00;;;17.11;87.19;99992.66;5029265;28;19948;-86
2021/07/29 05:29:10;;;;;;;;;;;18.20;91.00;;;17.09;87.14;100008.56;5030048;28;19968;-86
2021/07/29 05:31:40;;;;;;;;;;;18.20;91.10;;;17.11;86.74;100003.66;5028594;28;20024;-87
2021/07/29 05:34:08;;;;;;;;;;;18.30;91.10;;;17.13;87.05;100001.50;5030072;28;19925;-86
2021/07/29 05:36:35;;;;;;;;;;;18.30;91.00;;;17.15;86.83;100009.53;5029201;28;19987;-86
2021/07/29 05:39:03;;;;;;;;;;;18.30;90.40;;;17.19;86.78;100011.56;5029955;28;19943;-87
2021/07/29 05:41:30;;;;;;;;;;;18.40;90.30;;;17.21;86.67;100014.06;5029804;28;20027;-86
2021/07/29 05:43:57;;;;;;;;;;;18.40;90.40;;;17.27;85.87;100013.09;5029882;28;20356;-86
2021/07/29 05:46:24;;;;;;;;;;;18.40;90.00;;;17.34;85.75;100018.47;5029035;28;20957;-86
2021/07/29 05:48:51;;;;;;;;;;;18.40;89.80;;;17.38;84.82;100019.66;5029872;28;20580;-85
2021/07/29 05:51:36;;;;;;;;;;;18.50;89.50;;;17.41;84.67;100021.09;5030829;28;20421;-85
2021/07/29 05:54:04;;;;;;;;;;;18.60;88.70;;;17.45;84.20;100025.03;5029769;28;19925;-83
2021/07/29 05:56:31;;;;;;;;;;;18.80;88.00;;;17.51;84.23;100024.88;5028771;28;20020;-86
2021/07/29 05:58:58;;;;;;;;;;;18.90;87.70;;;17.61;84.21;100032.53;5029792;28;20445;-85
2021/07/29 06:01:26;;;;;;;;;;;19.00;87.00;;;17.72;84.82;100025.31;5028307;28;19995;-85
2021/07/29 06:03:53;;;;;;;;;;;19.20;86.60;;;17.84;83.51;100034.44;5029764;28;19928;-85
2021/07/29 06:06:20;;;;;;;;;;;20.00;82.60;;;17.96;82.59;100032.44;5028928;28;19956;-85
2021/07/29 06:08:48;;;;;;;;;;;21.50;76.50;;;18.16;82.41;100021.00;5029560;28;20363;-86
2021/07/29 06:11:16;;;;;;;;;;;23.40;67.90;;;18.30;81.57;100020.69;5029425;28;19983;-85
2021/07/29 06:13:43;;;;;;;;;;;24.50;62.20;;;18.47;81.24;100016.03;5029534;28;20400;-86
2021/07/29 06:16:10;;;;;;;;;;;24.80;59.60;;;18.54;80.36;100015.84;5028636;28;20019;-86
2021/07/29 06:18:47;;;;;;;;;;;25.00;60.00;;;18.61;79.39;100026.75;5029582;28;19921;-85
2021/07/29 06:21:14;;;;;;;;;;;25.30;58.30;;;18.68;79.89;100022.72;5029282;28;19952;-85
2021/07/29 06:23:41;;;;;;;;;;;25.30;59.00;;;18.63;78.44;100016.28;5030561;28;20049;-85
2021/07/29 06:26:10;;;;;;;;;;;23.80;62.90;;;18.58;78.52;100022.53;5031276;28;20443;-86
2021/07/29 06:28:39;;;;;;;;;;;22.60;68.70;;;18.62;78.93;100020.13;5033663;28;20425;-86
2021/07/29 06:31:08;;;;;;;;;;;22.20;71.30;;;18.63;79.61;100030.91;5033530;28;19925;-86
2021/07/29 06:33:35;;;;;;;;;;;21.90;73.00;;;18.67;78.95;100026.56;5033264;28;19983;-86
2021/07/29 06:36:03;;;;;;;;;;;21.90;72.80;;;18.71;78.55;100016.69;5032701;28;19953;-86
2021/07/29 06:38:30;;;;;;;;;;;21.80;73.00;;;18.73;78.62;100025.56;5033401;28;19924;-86
2021/07/29 06:40:57;;;;;;;;;;;21.80;73.30;;;18.73;77.44;100020.06;5033391;28;19925;-85
2021/07/29 06:43:24;;;;;;;;;;;21.80;73.40;;;18.78;76.11;100032.25;5033340;28;20018;-86
2021/07/29 06:45:53;;;;;;;;;;;21.80;71.80;;;18.73;76.48;100033.84;5032539;28;19925;-85
2021/07/29 06:48:20;;;;;;;;;;;21.80;72.80;;;18.77;77.20;100034.16;5033108;28;19928;-85
2021/07/29 06:50:47;;;;;;;;;;;21.80;72.70;;;18.80;77.38;100038.34;5033067;28;19984;-85
2021/07/29 06:53:14;;;;;;;;;;;21.80;73.20;;;18.83;77.31;100038.72;5031652;28;19932;-86
2021/07/29 06:55:48;;;;;;;;;;;21.70;73.40;;;18.82;76.16;100038.97;5033310;28;19925;-86
2021/07/29 06:58:41;;;;;;;;;;;21.50;73.70;;;18.82;76.76;100036.22;5032893;28;19971;-87
2021/07/29 07:01:10;;;;;;;;;;;21.40;74.50;;;18.84;77.24;100039.53;5032810;28;19990;-87
2021/07/29 07:03:37;;;;;;;;;;;21.40;75.10;;;18.81;75.98;100037.28;5032927;28;19925;-87
2021/07/29 07:06:05;;;;;;;;;;;21.40;74.60;;;18.83;76.92;100046.13;5032105;28;19965;-87
2021/07/29 07:08:32;;;;;;;;;;;21.30;75.20;;;18.89;76.90;100050.66;5031278;28;19929;-87
2021/07/29 07:10:59;;;;;;;;;;;21.30;75.30;;;18.90;77.11;100049.56;5032834;28;19956;-87
2021/07/29 07:13:27;;;;;;;;;;;21.30;76.30;;;18.98;77.67;100056.56;5032772;28;19924;-87
2021/07/29 07:15:54;;;;;;;;;;;21.30;76.30;;;19.01;77.08;100056.91;5032357;28;19975;-87
2021/07/29 07:18:23;;;;;;;;;;;21.30;76.30;;;19.02;76.86;100042.06;5032968;28;19983;-87
2021/07/29 07:20:51;;;;;;;;;;;21.30;76.30;;;19.00;76.05;100065.44;5032985;28;19956;-87
2021/07/29 07:23:18;;;;;;;;;;;21.30;75.50;;;19.03;75.40;100074.03;5032949;28;20007;-87
2021/07/29 07:25:45;;;;;;;;;;;21.30;75.30;;;19.07;75.72;100066.94;5036720;28;20015;-87
2021/07/29 07:28:12;;;;;;;;;;;21.40;75.30;;;19.14;75.40;100064.84;5032004;28;19929;-87
2021/07/29 07:30:41;;;;;;;;;;;21.50;74.50;;;19.05;73.11;100065.53;5032751;28;20373;-87
2021/07/29 07:33:08;;;;;;;;;;;21.50;72.80;;;19.08;74.82;100071.38;5031263;28;20016;-87
2021/07/29 07:35:37;;;;;;;;;;;21.40;74.80;;;19.06;73.61;100079.06;5031996;28;19928;-87
2021/07/29 07:38:04;;;;;;;;;;;21.30;74.20;;;19.06;74.38;100079.06;5031787;28;19956;-87
2021/07/29 07:40:31;;;;;;;;;;;21.20;74.80;;;18.99;73.08;100072.88;5032288;28;20019;-87
2021/07/29 07:42:58;;;;;;;;;;;21.20;74.50;;;18.98;74.92;100082.22;5031072;28;19956;-86
2021/07/29 07:45:26;;;;;;;;;;;21.30;75.40;;;18.99;73.64;100083.91;5032363;28;19939;-87
2021/07/29 07:47:53;;;;;;;;;;;21.40;74.40;;;19.03;74.23;100084.25;5031623;28;20019;-87
2021/07/29 07:50:20;;;;;;;;;;;21.30;74.80;;;19.07;74.23;100089.00;5032105;28;19929;-87
2021/07/29 07:52:49;;;;;;;;;;;21.30;74.50;;;19.09;74.01;100089.59;5032017;28;20623;-87
2021/07/29 07:55:16;;;;;;;;;;;21.30;74.80;;;19.09;72.88;100089.59;5031929;28;19931;-84
2021/07/29 07:57:43;;;;;;;;;;;21.30;73.20;;;19.06;71.72;100089.28;5030950;28;20413;-84
2021/07/29 08:00:12;;;;;;;;;;;21.10;73.10;;;19.05;72.70;100093.94;5032535;28;20393;-86
2021/07/29 08:02:39;;;;;;;;;;;21.10;74.90;;;19.06;74.00;100095.63;5032299;28;19921;-86
2021/07/29 08:08:08;;;;;;;;;;;21.20;74.70;;;19.07;72.11;100077.97;4990242;28;20404;-87
2021/07/29 08:10:35;;;;;;;;;;;21.20;73.40;;;19.14;73.66;100092.44;4992272;28;19981;-87
2021/07/29 08:13:03;;;;;;;;;;;21.30;74.60;;;19.21;71.86;100085.91;4992144;28;20382;-88
2021/07/29 08:15:30;;;;;;;;;;;21.30;73.50;;;19.28;74.62;100087.38;4993841;28;19947;-87
2021/07/29 08:17:57;;;;;;;;;;;21.40;75.00;;;19.29;72.78;100077.22;5026027;28;19925;-87
2021/07/29 08:20:25;;;;;;;;;;;21.40;73.20;;;19.32;71.33;100085.81;5026686;28;19991;-88
2021/07/29 08:22:53;;;;;;;;;;;21.50;73.20;;;19.34;71.73;100085.53;5011602;28;20024;-87
2021/07/29 08:25:21;;;;;;;;;;;21.60;72.40;;;19.37;71.17;100075.94;5011465;28;19925;-87
2021/07/29 08:27:49;;;;;;;;;;;21.70;71.70;;;19.38;70.72;100072.94;5025659;28;19932;-88
2021/07/29 08:30:16;;;;;;;;;;;21.70;71.40;;;19.43;71.64;100081.25;5011391;28;20052;-87
2021/07/29 08:32:43;;;;;;;;;;;21.70;71.70;;;19.47;71.49;100074.16;5026161;28;19988;-87
2021/07/29 08:35:11;;;;;;;;;;;21.80;72.20;;;19.51;70.76;100074.47;5011198;28;19925;-88
2021/07/29 08:37:38;;;;;;;;;;;21.90;71.90;;;19.49;71.54;100071.13;5010695;28;20040;-87
2021/07/29 08:40:06;;;;;;;;;;;21.90;71.70;;;19.46;70.34;100075.25;5011249;28;19926;-87
2021/07/29 08:42:35;;;;;;;;;;;21.70;71.20;;;19.46;70.64;100078.00;5011039;28;20020;-86
2021/07/29 08:45:03;;;;;;;;;;;21.70;72.10;;;19.50;72.42;100084.69;5009622;28;19940;-87
2021/07/29 08:47:32;;;;;;;;;;;21.80;71.50;;;19.59;71.33;100087.84;5009729;28;20010;-87
2021/07/29 08:50:04;;;;;;;;;;;22.00;71.10;;;19.63;70.67;100082.63;5011064;28;19932;-87
2021/07/29 08:52:31;;;;;;;;;;;22.10;70.50;;;19.62;68.83;100083.75;5011186;28;19925;-87
2021/07/29 08:54:58;;;;;;;;;;;22.00;69.40;;;19.52;66.63;100085.25;5011100;28;19968;-87
2021/07/29 08:57:28;;;;;;;;;;;21.70;68.50;;;19.56;70.61;100098.56;5025157;28;19983;-87
2021/07/29 08:59:56;;;;;;;;;;;21.80;71.60;;;19.59;69.49;100093.38;5010999;28;19921;-87
2021/07/29 09:02:24;;;;;;;;;;;21.90;70.00;;;19.64;70.33;100095.38;5011043;28;20389;-92
2021/07/29 09:05:06;;;;;;;;;;;22.10;69.50;;;19.68;69.21;100091.00;5010490;28;19921;-86
2021/07/29 09:07:34;;;;;;;;;;;22.10;70.00;;;19.77;70.69;100083.97;5028109;28;19924;-86
2021/07/29 09:10:03;;;;;;;;;;;22.30;70.20;;;19.77;68.21;100095.03;5029492;28;19925;-88
2021/07/29 09:12:31;;;;;;;;;;;22.30;68.80;;;19.82;70.27;100086.81;5029203;28;19925;-86
2021/07/29 09:14:59;;;;;;;;;;;22.40;69.90;;;19.73;66.18;100100.22;5029098;28;19928;-89
2021/07/29 09:17:29;;;;;;;;;;;22.30;66.50;;;19.67;67.71;100094.88;5028343;28;20381;-88
2021/07/29 09:19:56;;;;;;;;;;;22.20;68.90;;;19.60;65.56;100099.72;5029024;28;19921;-89
2021/07/29 09:22:25;;;;;;;;;;;22.00;66.90;;;19.56;68.21;100102.16;5028977;28;19983;-89
2021/07/29 09:25:07;;;;;;;;;;;21.80;69.70;;;19.60;68.80;100108.00;5030146;28;19925;-89
2021/07/29 09:27:44;;;;;;;;;;;21.70;70.50;;;19.60;68.46;100108.00;5028256;28;19925;-87
2021/07/29 09:30:16;;;;;;;;;;;21.80;70.20;;;19.65;70.20;100108.09;5012268;28;19921;-88
2021/07/29 09:33:03;;;;;;;;;;;21.90;70.70;;;19.71;67.98;100109.81;5029966;28;20011;-89
2021/07/29 09:35:39;;;;;;;;;;;22.00;69.20;;;19.79;70.72;100098.34;5028663;28;20439;-88
2021/07/29 09:38:09;;;;;;;;;;;22.10;71.50;;;19.85;70.31;100097.31;5027904;28;19925;-88
2021/07/29 09:40:48;;;;;;;;;;;22.20;70.70;;;19.88;70.81;100096.81;5028549;28;19928;-88
2021/07/29 09:43:16;;;;;;;;;;;22.20;70.30;;;19.94;70.05;100105.19;5028096;28;19971;-88
2021/07/29 09:45:46;;;;;;;;;;;22.30;70.00;;;20.02;69.53;100094.50;5028178;28;19929;-88
2021/07/29 09:48:14;;;;;;;;;;;22.40;70.00;;;20.07;69.68;100088.22;5029386;28;19932;-88
2021/07/29 09:50:42;;;;;;;;;;;22.50;69.50;;;20.03;64.32;100092.56;5012004;28;19925;-88
2021/07/29 09:53:10;;;;;;;;;;;22.50;65.80;;;20.06;65.52;100089.28;5029816;28;19924;-89
2021/07/29 09:55:37;;;;;;;;;;;22.60;66.30;;;20.11;66.49;100097.66;5028149;28;19929;-88
2021/07/29 09:58:05;;;;;;;;;;;22.60;67.10;;;20.16;67.11;100105.97;5027805;28;20051;-88
2021/07/29 10:00:37;;;;;;;;;;;22.70;67.60;;;20.17;66.87;100107.66;5028421;28;20012;-88
2021/07/29 10:03:07;;;;;;;;;;;22.70;66.90;;;20.08;64.09;100099.00;5028606;28;19925;-89
2021/07/29 10:05:46;;;;;;;;;;;22.60;65.70;;;20.02;65.00;100101.97;5028123;28;19932;-88
2021/07/29 10:08:21;;;;;;;;;;;22.40;66.30;;;19.96;64.70;100105.75;5027652;28;19979;-89
2021/07/29 10:10:49;;;;;;;;;;;22.30;66.50;;;19.88;64.56;100113.41;5028143;28;19929;-89
2021/07/29 10:13:16;;;;;;;;;;;22.10;66.50;;;19.80;63.41;100111.09;5028154;28;19956;-89
2021/07/29 10:15:44;;;;;;;;;;;22.00;66.70;;;19.85;65.70;100108.38;5027924;28;19925;-89
2021/07/29 10:18:14;;;;;;;;;;;22.00;67.70;;;19.95;66.27;100109.59;5027459;28;19956;-89
2021/07/29 10:20:42;;;;;;;;;;;22.10;66.70;;;20.04;66.04;100103.38;5027932;28;19925;-88
2021/07/29 10:24:00;;;;;;;;;;;22.20;67.60;;;20.12;63.05;100102.06;5028115;28;19929;-89
2021/07/29 10:26:27;;;;;;;;;;;22.30;65.30;;;20.25;65.10;100101.69;5021002;28;19984;-88
2021/07/29 10:29:16;;;;;;;;;;;22.60;66.50;;;20.31;65.84;100103.44;5028334;28;19975;-89
2021/07/29 10:31:49;;;;;;;;;;;22.70;66.30;;;20.34;66.46;100098.47;5029480;28;20026;-88
2021/07/29 10:34:28;;;;;;;;;;;22.60;65.60;;;20.34;63.10;100098.47;5029442;28;19931;-89
2021/07/29 10:36:56;;;;;;;;;;;22.60;64.10;;;20.28;63.96;100103.09;5010885;28;19921;-89
2021/07/29 10:39:24;;;;;;;;;;;22.60;64.20;;;20.29;66.65;100097.28;5027699;28;20500;-88
2021/07/29 10:41:53;;;;;;;;;;;22.70;66.70;;;20.25;65.55;100109.13;5029212;28;20381;-89
2021/07/29 10:44:57;;;;;;;;;;;22.60;67.00;;;20.14;63.22;100108.19;5027866;28;19960;-88
2021/07/29 10:47:41;;;;;;;;;;;22.50;66.20;;;20.12;64.19;100104.84;5028463;28;19931;-89
2021/07/29 10:50:11;;;;;;;;;;;22.60;65.20;;;20.15;63.48;100112.63;5029199;28;19979;-88
2021/07/29 10:52:39;;;;;;;;;;;22.60;65.60;;;20.16;64.16;100102.41;5027866;28;19921;-88
2021/07/29 10:55:08;;;;;;;;;;;22.70;65.10;;;20.13;62.70;100102.94;5011188;28;19944;-89
2021/07/29 10:57:35;;;;;;;;;;;22.70;64.20;;;20.14;63.49;100091.59;5028474;28;19921;-89
2021/07/29 11:00:04;;;;;;;;;;;22.60;64.40;;;20.27;67.98;100095.91;5029272;28;19921;-90
2021/07/29 11:02:46;;;;;;;;;;;22.80;66.60;;;20.35;66.54;100095.41;5029023;28;19967;-89
2021/07/29 11:05:20;;;;;;;;;;;22.80;65.70;;;20.26;63.18;100089.53;5029285;28;19925;-89
2021/07/29 11:07:49;;;;;;;;;;;22.80;64.40;;;20.29;66.03;100091.75;5027111;28;20258;-89
2021/07/29 11:10:17;;;;;;;;;;;22.80;65.90;;;20.33;62.61;100081.03;5013035;28;19932;-88
2021/07/29 11:12:59;;;;;;;;;;;22.80;64.40;;;20.36;63.82;100093.50;5015882;28;20011;-89
2021/07/29 11:15:39;;;;;;;;;;;22.80;63.70;;;20.34;65.48;100093.78;5037228;28;19925;-90
2021/07/29 11:18:16;;;;;;;;;;;22.80;65.00;;;20.38;66.13;100096.84;5016603;28;19990;-89
2021/07/29 11:20:45;;;;;;;;;;;22.90;66.00;;;20.30;63.84;100104.50;5018960;28;19921;-89
2021/07/29 11:23:15;;;;;;;;;;;22.90;64.20;;;20.40;62.42;100102.94;5017285;28;19931;-90
2021/07/29 11:26:04;;;;;;;;;;;22.90;63.30;;;20.43;61.30;100108.81;5035588;28;19932;-89
2021/07/29 11:28:32;;;;;;;;;;;23.00;61.90;;;20.49;64.16;100098.63;5035269;28;19921;-89